sensor_id;sensor_type;location;lat;lon;timestamp;pressure;altitude;pressure_sealevel;temperature;humidity
46778;BME280;32536;47.128;8.746;2023-09-19T00:00:43;91650.34;;;18.70;54.68
46778;BME280;32536;47.128;8.746;2023-09-19T00:03:10;91659.53;;;18.73;54.56
46778;BME280;32536;47.128;8.746;2023-09-19T00:05:38;91660.00;;;18.71;54.83
46778;BME280;32536;47.128;8.746;2023-09-19T00:08:05;91663.91;;;18.70;54.51
46778;BME280;32536;47.128;8.746;2023-09-19T00:10:33;91669.19;;;18.65;54.99
46778;BME280;32536;47.128;8.746;2023-09-19T00:13:04;91664.09;;;18.58;55.01
46778;BME280;32536;47.128;8.746;2023-09-19T00:15:41;91660.47;;;18.51;56.36
46778;BME280;32536;47.128;8.746;2023-09-19T00:18:14;91648.56;;;18.49;54.74
46778;BME280;32536;47.128;8.746;2023-09-19T00:20:41;91652.22;;;18.46;54.96
46778;BME280;32536;47.128;8.746;2023-09-19T00:23:08;91653.41;;;18.45;54.78
46778;BME280;32536;47.128;8.746;2023-09-19T00:25:35;91662.91;;;18.40;54.87
46778;BME280;32536;47.128;8.746;2023-09-19T00:28:04;91663.94;;;18.33;54.95
46778;BME280;32536;47.128;8.746;2023-09-19T00:30:33;91664.13;;;18.20;55.37
46778;BME280;32536;47.128;8.746;2023-09-19T00:33:00;91664.41;;;18.13;55.42
46778;BME280;32536;47.128;8.746;2023-09-19T00:35:31;91657.47;;;18.12;55.25
46778;BME280;32536;47.128;8.746;2023-09-19T00:37:59;91657.34;;;18.16;55.17
46778;BME280;32536;47.128;8.746;2023-09-19T00:40:25;91661.09;;;18.18;55.10
46778;BME280;32536;47.128;8.746;2023-09-19T00:42:57;91655.06;;;18.23;55.61
46778;BME280;32536;47.128;8.746;2023-09-19T00:45:27;91662.16;;;18.30;54.80
46778;BME280;32536;47.128;8.746;2023-09-19T00:47:54;91661.53;;;18.35;55.30
46778;BME280;32536;47.128;8.746;2023-09-19T00:50:24;91656.88;;;18.36;55.67
46778;BME280;32536;47.128;8.746;2023-09-19T00:52:54;91656.88;;;18.36;55.95
46778;BME280;32536;47.128;8.746;2023-09-19T00:55:24;91663.06;;;18.36;55.28
46778;BME280;32536;47.128;8.746;2023-09-19T00:57:52;91658.38;;;18.37;55.23
46778;BME280;32536;47.128;8.746;2023-09-19T01:00:20;91651.16;;;18.43;54.96
46778;BME280;32536;47.128;8.746;2023-09-19T01:02:47;91645.28;;;18.45;55.53
46778;BME280;32536;47.128;8.746;2023-09-19T01:05:14;91644.97;;;18.43;55.78
46778;BME280;32536;47.128;8.746;2023-09-19T01:07:41;91645.72;;;18.43;55.24
46778;BME280;32536;47.128;8.746;2023-09-19T01:10:13;91641.63;;;18.48;55.37
46778;BME280;32536;47.128;8.746;2023-09-19T01:15:51;91656.88;;;18.54;56.44
46778;BME280;32536;47.128;8.746;2023-09-19T01:18:39;91657.75;;;18.61;56.17
46778;BME280;32536;47.128;8.746;2023-09-19T01:24:10;91678.22;;;18.71;56.14
46778;BME280;32536;47.128;8.746;2023-09-19T01:30:24;91673.84;;;18.73;56.31
46778;BME280;32536;47.128;8.746;2023-09-19T01:32:55;91673.41;;;18.75;54.90
46778;BME280;32536;47.128;8.746;2023-09-19T01:35:23;91662.41;;;18.69;54.98
46778;BME280;32536;47.128;8.746;2023-09-19T01:37:50;91673.88;;;18.64;55.03
46778;BME280;32536;47.128;8.746;2023-09-19T01:40:18;91677.78;;;18.63;55.12
46778;BME280;32536;47.128;8.746;2023-09-19T01:46:16;91661.38;;;18.67;55.22
46778;BME280;32536;47.128;8.746;2023-09-19T01:49:10;91675.66;;;18.67;55.26
46778;BME280;32536;47.128;8.746;2023-09-19T01:51:59;91670.09;;;18.71;55.00
46778;BME280;32536;47.128;8.746;2023-09-19T01:54:41;91677.34;;;18.74;55.21
46778;BME280;32536;47.128;8.746;2023-09-19T01:57:32;91670.69;;;18.75;55.06
46778;BME280;32536;47.128;8.746;2023-09-19T02:00:07;91676.13;;;18.75;54.72
46778;BME280;32536;47.128;8.746;2023-09-19T02:02:46;91671.00;;;18.68;55.33
46778;BME280;32536;47.128;8.746;2023-09-19T02:05:21;91671.75;;;18.68;55.27
46778;BME280;32536;47.128;8.746;2023-09-19T02:07:50;91671.28;;;18.70;54.87
46778;BME280;32536;47.128;8.746;2023-09-19T02:10:20;91671.91;;;18.74;54.72
46778;BME280;32536;47.128;8.746;2023-09-19T02:12:46;91673.41;;;18.75;54.83
46778;BME280;32536;47.128;8.746;2023-09-19T02:15:13;91668.56;;;18.79;54.80
46778;BME280;32536;47.128;8.746;2023-09-19T02:17:44;91666.44;;;18.83;55.00
46778;BME280;32536;47.128;8.746;2023-09-19T02:20:12;91671.72;;;18.87;54.73
46778;BME280;32536;47.128;8.746;2023-09-19T02:22:41;91681.22;;;18.92;54.93
46778;BME280;32536;47.128;8.746;2023-09-19T02:25:08;91677.31;;;18.93;54.76
46778;BME280;32536;47.128;8.746;2023-09-19T02:27:35;91674.44;;;18.96;54.62
46778;BME280;32536;47.128;8.746;2023-09-19T02:30:04;91680.63;;;18.97;54.70
46778;BME280;32536;47.128;8.746;2023-09-19T02:32:32;91681.84;;;18.96;54.50
46778;BME280;32536;47.128;8.746;2023-09-19T02:35:01;91687.44;;;18.92;54.56
46778;BME280;32536;47.128;8.746;2023-09-19T02:37:31;91688.31;;;18.89;54.48
46778;BME280;32536;47.128;8.746;2023-09-19T02:39:59;91687.09;;;18.81;54.38
46778;BME280;32536;47.128;8.746;2023-09-19T02:42:25;91700.72;;;18.71;54.48
46778;BME280;32536;47.128;8.746;2023-09-19T02:44:52;91686.41;;;18.62;54.36
46778;BME280;32536;47.128;8.746;2023-09-19T02:47:19;91696.78;;;18.54;54.46
46778;BME280;32536;47.128;8.746;2023-09-19T02:49:46;91694.38;;;18.47;54.48
46778;BME280;32536;47.128;8.746;2023-09-19T02:52:12;91699.97;;;18.43;54.52
46778;BME280;32536;47.128;8.746;2023-09-19T02:54:40;91689.56;;;18.42;54.49
46778;BME280;32536;47.128;8.746;2023-09-19T02:57:07;91699.81;;;18.37;54.48
46778;BME280;32536;47.128;8.746;2023-09-19T02:59:35;91698.31;;;18.36;54.44
46778;BME280;32536;47.128;8.746;2023-09-19T03:02:03;91700.56;;;18.38;54.52
46778;BME280;32536;47.128;8.746;2023-09-19T03:04:31;91699.34;;;18.39;54.36
46778;BME280;32536;47.128;8.746;2023-09-19T03:06:58;91703.59;;;18.40;54.84
46778;BME280;32536;47.128;8.746;2023-09-19T03:09:26;91707.34;;;18.43;54.56
46778;BME280;32536;47.128;8.746;2023-09-19T03:11:53;91701.78;;;18.46;54.75
46778;BME280;32536;47.128;8.746;2023-09-19T03:14:20;91708.25;;;18.49;54.77
46778;BME280;32536;47.128;8.746;2023-09-19T03:16:47;91714.72;;;18.51;54.88
46778;BME280;32536;47.128;8.746;2023-09-19T03:19:13;91714.13;;;18.56;55.02
46778;BME280;32536;47.128;8.746;2023-09-19T03:21:40;91718.03;;;18.65;55.08
46778;BME280;32536;47.128;8.746;2023-09-19T03:24:07;91706.13;;;18.71;55.04
46778;BME280;32536;47.128;8.746;2023-09-19T03:26:34;91704.47;;;18.74;54.97
46778;BME280;32536;47.128;8.746;2023-09-19T03:29:03;91710.63;;;18.75;55.26
46778;BME280;32536;47.128;8.746;2023-09-19T03:31:33;91704.47;;;18.74;55.37
46778;BME280;32536;47.128;8.746;2023-09-19T03:34:02;91705.97;;;18.75;55.26
46778;BME280;32536;47.128;8.746;2023-09-19T03:36:30;91718.50;;;18.72;55.31
46778;BME280;32536;47.128;8.746;2023-09-19T03:38:57;91715.31;;;18.74;55.28
46778;BME280;32536;47.128;8.746;2023-09-19T03:41:23;91710.47;;;18.78;55.09
46778;BME280;32536;47.128;8.746;2023-09-19T03:43:50;91715.75;;;18.82;55.06
46778;BME280;32536;47.128;8.746;2023-09-19T03:46:17;91713.03;;;18.82;55.04
46778;BME280;32536;47.128;8.746;2023-09-19T03:48:44;91702.34;;;18.78;55.16
46778;BME280;32536;47.128;8.746;2023-09-19T03:51:11;91697.06;;;18.75;55.27
46778;BME280;32536;47.128;8.746;2023-09-19T03:53:37;91697.22;;;18.71;55.54
46778;BME280;32536;47.128;8.746;2023-09-19T03:56:04;91689.09;;;18.71;55.62
46778;BME280;32536;47.128;8.746;2023-09-19T03:58:31;91689.84;;;18.71;55.34
46778;BME280;32536;47.128;8.746;2023-09-19T04:01:00;91693.75;;;18.70;55.19
46778;BME280;32536;47.128;8.746;2023-09-19T04:03:26;91690.75;;;18.68;55.25
46778;BME280;32536;47.128;8.746;2023-09-19T04:06:01;91687.59;;;18.61;55.08
46778;BME280;32536;47.128;8.746;2023-09-19T04:08:28;91694.53;;;18.62;55.17
46778;BME280;32536;47.128;8.746;2023-09-19T04:10:55;91699.50;;;18.63;55.23
46778;BME280;32536;47.128;8.746;2023-09-19T04:13:22;91697.53;;;18.64;55.04
46778;BME280;32536;47.128;8.746;2023-09-19T04:15:49;91698.75;;;18.63;55.23
46778;BME280;32536;47.128;8.746;2023-09-19T04:18:16;91700.72;;;18.62;55.28
46778;BME280;32536;47.128;8.746;2023-09-19T04:20:50;91697.25;;;18.62;55.61
46778;BME280;32536;47.128;8.746;2023-09-19T04:23:17;91687.13;;;18.62;55.32
46778;BME280;32536;47.128;8.746;2023-09-19T04:25:47;91687.91;;;18.63;55.28
46778;BME280;32536;47.128;8.746;2023-09-19T04:28:14;91692.25;;;18.60;55.29
46778;BME280;32536;47.128;8.746;2023-09-19T04:30:41;91693.75;;;18.61;55.29
46778;BME280;32536;47.128;8.746;2023-09-19T04:33:08;91687.75;;;18.57;55.34
46778;BME280;32536;47.128;8.746;2023-09-19T04:35:35;91684.00;;;18.54;55.43
46778;BME280;32536;47.128;8.746;2023-09-19T04:38:02;91692.59;;;18.53;55.56
46778;BME280;32536;47.128;8.746;2023-09-19T04:40:29;91700.72;;;18.53;55.78
46778;BME280;32536;47.128;8.746;2023-09-19T04:42:56;91692.59;;;18.53;55.72
46778;BME280;32536;47.128;8.746;2023-09-19T04:45:26;91695.59;;;18.55;55.67
46778;BME280;32536;47.128;8.746;2023-09-19T04:47:54;91690.47;;;18.57;55.53
46778;BME280;32536;47.128;8.746;2023-09-19T04:50:22;91695.13;;;18.56;55.57
46778;BME280;32536;47.128;8.746;2023-09-19T04:52:50;91702.97;;;18.54;55.83
46778;BME280;32536;47.128;8.746;2023-09-19T04:55:18;91700.53;;;18.56;55.68
46778;BME280;32536;47.128;8.746;2023-09-19T04:57:51;91696.94;;;18.60;55.67
46778;BME280;32536;47.128;8.746;2023-09-19T05:00:22;91710.66;;;18.65;55.60
46778;BME280;32536;47.128;8.746;2023-09-19T05:02:55;91706.28;;;18.68;55.77
46778;BME280;32536;47.128;8.746;2023-09-19T05:05:23;91717.25;;;18.73;55.55
46778;BME280;32536;47.128;8.746;2023-09-19T05:07:51;91719.66;;;18.81;55.47
46778;BME280;32536;47.128;8.746;2023-09-19T05:10:20;91720.41;;;18.91;55.13
46778;BME280;32536;47.128;8.746;2023-09-19T05:12:47;91719.38;;;18.97;54.94
46778;BME280;32536;47.128;8.746;2023-09-19T05:15:17;91721.94;;;19.01;55.03
46778;BME280;32536;47.128;8.746;2023-09-19T05:17:51;91720.59;;;18.96;55.38
46778;BME280;32536;47.128;8.746;2023-09-19T05:20:21;91732.19;;;18.97;55.20
46778;BME280;32536;47.128;8.746;2023-09-19T05:22:59;91730.97;;;18.98;55.15
46778;BME280;32536;47.128;8.746;2023-09-19T05:25:31;91731.28;;;19.00;54.92
46778;BME280;32536;47.128;8.746;2023-09-19T05:28:03;91734.00;;;19.00;54.79
46778;BME280;32536;47.128;8.746;2023-09-19T05:30:32;91742.63;;;18.98;54.75
46778;BME280;32536;47.128;8.746;2023-09-19T05:32:59;91740.06;;;18.95;54.93
46778;BME280;32536;47.128;8.746;2023-09-19T05:35:26;91745.94;;;18.93;54.87
46778;BME280;32536;47.128;8.746;2023-09-19T05:37:53;91743.03;;;18.87;54.91
46778;BME280;32536;47.128;8.746;2023-09-19T05:40:21;91744.72;;;18.85;54.82
46778;BME280;32536;47.128;8.746;2023-09-19T05:42:49;91747.56;;;18.81;54.86
46778;BME280;32536;47.128;8.746;2023-09-19T05:45:18;91751.19;;;18.78;54.86
46778;BME280;32536;47.128;8.746;2023-09-19T05:47:49;91763.41;;;18.73;54.96
46778;BME280;32536;47.128;8.746;2023-09-19T05:50:17;91767.78;;;18.71;54.85
46778;BME280;32536;47.128;8.746;2023-09-19T05:52:52;91770.22;;;18.69;55.38
46778;BME280;32536;47.128;8.746;2023-09-19T05:55:19;91763.84;;;18.72;54.78
46778;BME280;32536;47.128;8.746;2023-09-19T05:57:50;91763.28;;;18.68;55.58
46778;BME280;32536;47.128;8.746;2023-09-19T06:00:20;91770.22;;;18.69;55.90
46778;BME280;32536;47.128;8.746;2023-09-19T06:02:58;91778.78;;;18.67;55.35
46778;BME280;32536;47.128;8.746;2023-09-19T06:05:26;91778.03;;;18.67;54.57
46778;BME280;32536;47.128;8.746;2023-09-19T06:07:54;91772.75;;;18.63;54.77
46778;BME280;32536;47.128;8.746;2023-09-19T06:10:21;91781.19;;;18.56;54.96
46778;BME280;32536;47.128;8.746;2023-09-19T06:12:49;91774.72;;;18.53;54.90
46778;BME280;32536;47.128;8.746;2023-09-19T06:15:16;91776.22;;;18.54;54.68
46778;BME280;32536;47.128;8.746;2023-09-19T06:17:50;91782.84;;;18.53;55.33
46778;BME280;32536;47.128;8.746;2023-09-19T06:20:21;91779.09;;;18.51;55.22
46778;BME280;32536;47.128;8.746;2023-09-19T06:22:49;91783.59;;;18.54;55.27
46778;BME280;32536;47.128;8.746;2023-09-19T06:25:17;91786.16;;;18.58;55.02
46778;BME280;32536;47.128;8.746;2023-09-19T06:27:48;91787.06;;;18.54;55.11
46778;BME280;32536;47.128;8.746;2023-09-19T06:30:18;91787.53;;;18.53;55.08
46778;BME280;32536;47.128;8.746;2023-09-19T06:32:46;91791.59;;;18.48;55.22
46778;BME280;32536;47.128;8.746;2023-09-19T06:35:14;91789.78;;;18.45;55.15
46778;BME280;32536;47.128;8.746;2023-09-19T06:37:42;91778.91;;;18.45;55.13
46778;BME280;32536;47.128;8.746;2023-09-19T06:40:10;91782.41;;;18.46;55.31
46778;BME280;32536;47.128;8.746;2023-09-19T06:42:41;91781.16;;;18.47;55.35
46778;BME280;32536;47.128;8.746;2023-09-19T06:45:15;91790.09;;;18.47;55.79
46778;BME280;32536;47.128;8.746;2023-09-19T06:47:46;91792.97;;;18.53;55.47
46778;BME280;32536;47.128;8.746;2023-09-19T06:50:17;91789.94;;;18.60;55.41
46778;BME280;32536;47.128;8.746;2023-09-19T06:52:46;91794.31;;;18.67;55.37
46778;BME280;32536;47.128;8.746;2023-09-19T06:55:16;91790.53;;;18.73;55.26
46778;BME280;32536;47.128;8.746;2023-09-19T06:57:46;91796.44;;;18.81;55.47
46778;BME280;32536;47.128;8.746;2023-09-19T07:00:14;91797.34;;;18.87;55.43
46778;BME280;32536;47.128;8.746;2023-09-19T07:03:01;91808.66;;;18.95;55.82
46778;BME280;32536;47.128;8.746;2023-09-19T07:05:34;91804.44;;;19.03;55.39
46778;BME280;32536;47.128;8.746;2023-09-19T07:08:06;91802.31;;;19.08;55.25
46778;BME280;32536;47.128;8.746;2023-09-19T07:10:33;91810.03;;;19.09;55.22
46778;BME280;32536;47.128;8.746;2023-09-19T07:13:05;91808.34;;;19.12;55.21
46778;BME280;32536;47.128;8.746;2023-09-19T07:15:35;91813.31;;;19.13;55.36
46778;BME280;32536;47.128;8.746;2023-09-19T07:18:06;91813.31;;;19.13;55.47
46778;BME280;32536;47.128;8.746;2023-09-19T07:20:34;91806.84;;;19.11;55.27
46778;BME280;32536;47.128;8.746;2023-09-19T07:23:01;91813.31;;;19.04;55.60
46778;BME280;32536;47.128;8.746;2023-09-19T07:25:28;91812.28;;;19.01;55.76
46778;BME280;32536;47.128;8.746;2023-09-19T07:27:56;91823.13;;;19.01;55.87
46778;BME280;32536;47.128;8.746;2023-09-19T07:30:28;91827.06;;;19.00;55.97
46778;BME280;32536;47.128;8.746;2023-09-19T07:32:55;91824.34;;;19.00;56.14
46778;BME280;32536;47.128;8.746;2023-09-19T07:35:21;91824.34;;;19.00;56.08
46778;BME280;32536;47.128;8.746;2023-09-19T07:37:49;91821.63;;;19.00;55.88
46778;BME280;32536;47.128;8.746;2023-09-19T07:40:17;91831.59;;;19.03;55.74
46778;BME280;32536;47.128;8.746;2023-09-19T07:42:44;91826.16;;;19.03;55.59
46778;BME280;32536;47.128;8.746;2023-09-19T07:45:13;91833.25;;;19.01;55.63
46778;BME280;32536;47.128;8.746;2023-09-19T07:47:47;91830.09;;;18.93;55.92
46778;BME280;32536;47.128;8.746;2023-09-19T07:50:15;91827.06;;;18.91;55.82
46778;BME280;32536;47.128;8.746;2023-09-19T07:52:45;91830.06;;;18.84;55.66
46778;BME280;32536;47.128;8.746;2023-09-19T07:55:12;91839.84;;;18.81;55.67
46778;BME280;32536;47.128;8.746;2023-09-19T07:57:43;91841.03;;;18.71;55.84
46778;BME280;32536;47.128;8.746;2023-09-19T08:00:10;91840.75;;;18.69;55.79
46778;BME280;32536;47.128;8.746;2023-09-19T08:03:05;91837.13;;;18.63;56.88
46778;BME280;32536;47.128;8.746;2023-09-19T08:05:34;91839.38;;;18.64;55.97
46778;BME280;32536;47.128;8.746;2023-09-19T08:08:02;91843.31;;;18.63;55.97
46778;BME280;32536;47.128;8.746;2023-09-19T08:10:29;91852.50;;;18.66;55.89
46778;BME280;32536;47.128;8.746;2023-09-19T08:13:01;91849.19;;;18.71;55.83
46778;BME280;32536;47.128;8.746;2023-09-19T08:15:27;91848.16;;;18.78;55.63
46778;BME280;32536;47.128;8.746;2023-09-19T08:17:54;91855.38;;;18.81;55.86
46778;BME280;32536;47.128;8.746;2023-09-19T08:20:21;91856.88;;;18.82;56.13
46778;BME280;32536;47.128;8.746;2023-09-19T08:22:53;91858.69;;;18.85;55.95
46778;BME280;32536;47.128;8.746;2023-09-19T08:25:23;91855.72;;;18.92;55.98
46778;BME280;32536;47.128;8.746;2023-09-19T08:27:52;91864.00;;;18.98;56.08
46778;BME280;32536;47.128;8.746;2023-09-19T08:30:20;91860.25;;;19.04;56.10
46778;BME280;32536;47.128;8.746;2023-09-19T08:33:02;91860.09;;;19.08;56.37
46778;BME280;32536;47.128;8.746;2023-09-19T08:35:30;91862.19;;;19.13;55.98
46778;BME280;32536;47.128;8.746;2023-09-19T08:37:57;91872.31;;;19.13;55.92
46778;BME280;32536;47.128;8.746;2023-09-19T08:40:26;91868.84;;;19.12;56.07
46778;BME280;32536;47.128;8.746;2023-09-19T08:42:56;91864.47;;;19.15;56.24
46778;BME280;32536;47.128;8.746;2023-09-19T08:45:24;91871.09;;;19.23;56.41
46778;BME280;32536;47.128;8.746;2023-09-19T08:48:16;91872.16;;;19.26;56.58
46778;BME280;32536;47.128;8.746;2023-09-19T08:50:51;91873.81;;;19.32;56.32
46778;BME280;32536;47.128;8.746;2023-09-19T08:56:38;91870.94;;;19.36;56.00
46778;BME280;32536;47.128;8.746;2023-09-19T08:59:06;91871.22;;;19.38;55.97
46778;BME280;32536;47.128;8.746;2023-09-19T09:01:40;91876.97;;;19.40;55.85
46778;BME280;32536;47.128;8.746;2023-09-19T09:04:11;91878.47;;;19.41;55.56
46778;BME280;32536;47.128;8.746;2023-09-19T09:06:39;91874.09;;;19.44;55.68
46778;BME280;32536;47.128;8.746;2023-09-19T09:09:06;91878.59;;;19.47;55.59
46778;BME280;32536;47.128;8.746;2023-09-19T09:11:35;91877.56;;;19.54;55.63
46778;BME280;32536;47.128;8.746;2023-09-19T09:14:06;91875.28;;;19.61;55.41
46778;BME280;32536;47.128;8.746;2023-09-19T09:16:33;91884.03;;;19.65;55.34
46778;BME280;32536;47.128;8.746;2023-09-19T09:19:00;91878.88;;;19.67;55.29
46778;BME280;32536;47.128;8.746;2023-09-19T09:21:27;91876.63;;;19.66;55.29
46778;BME280;32536;47.128;8.746;2023-09-19T09:23:54;91876.00;;;19.71;55.07
46778;BME280;32536;47.128;8.746;2023-09-19T09:29:06;91877.06;;;19.74;55.02
46778;BME280;32536;47.128;8.746;2023-09-19T09:31:34;91880.06;;;19.76;55.10
46778;BME280;32536;47.128;8.746;2023-09-19T09:34:00;91887.03;;;19.77;55.23
46778;BME280;32536;47.128;8.746;2023-09-19T09:36:37;91880.53;;;19.74;55.04
46778;BME280;32536;47.128;8.746;2023-09-19T09:39:07;91886.56;;;19.78;55.00
46778;BME280;32536;47.128;8.746;2023-09-19T09:41:50;91882.22;;;19.72;54.95
46778;BME280;32536;47.128;8.746;2023-09-19T09:44:18;91884.47;;;19.73;55.09
46778;BME280;32536;47.128;8.746;2023-09-19T09:46:46;91883.09;;;19.78;54.90
46778;BME280;32536;47.128;8.746;2023-09-19T09:49:24;91880.09;;;19.85;54.83
46778;BME280;32536;47.128;8.746;2023-09-19T09:52:03;91879.31;;;19.94;55.11
46778;BME280;32536;47.128;8.746;2023-09-19T09:55:00;91873.25;;;19.99;55.34
46778;BME280;32536;47.128;8.746;2023-09-19T09:57:31;91878.97;;;20.01;54.88
46778;BME280;32536;47.128;8.746;2023-09-19T10:00:00;91890.50;;;19.96;54.88
46778;BME280;32536;47.128;8.746;2023-09-19T10:03:19;91883.09;;;19.87;55.14
46778;BME280;32536;47.128;8.746;2023-09-19T10:05:53;91882.34;;;19.77;55.28
46778;BME280;32536;47.128;8.746;2023-09-19T10:08:21;91887.81;;;19.68;55.53
46778;BME280;32536;47.128;8.746;2023-09-19T10:10:47;91883.00;;;19.63;55.44
46778;BME280;32536;47.128;8.746;2023-09-19T10:13:29;91882.69;;;19.51;55.67
46778;BME280;32536;47.128;8.746;2023-09-19T10:15:58;91884.34;;;19.49;55.86
46778;BME280;32536;47.128;8.746;2023-09-19T10:18:36;91883.16;;;19.50;55.95
46778;BME280;32536;47.128;8.746;2023-09-19T10:21:04;91880.88;;;19.48;55.95
46778;BME280;32536;47.128;8.746;2023-09-19T10:23:34;91882.25;;;19.44;55.93
46778;BME280;32536;47.128;8.746;2023-09-19T10:26:03;91883.16;;;19.41;56.04
46778;BME280;32536;47.128;8.746;2023-09-19T10:28:32;91876.66;;;19.38;56.23
46778;BME280;32536;47.128;8.746;2023-09-19T10:31:00;91880.59;;;19.37;56.31
46778;BME280;32536;47.128;8.746;2023-09-19T10:33:34;91882.09;;;19.38;56.69
46778;BME280;32536;47.128;8.746;2023-09-19T10:36:04;91884.66;;;19.42;56.74
46778;BME280;32536;47.128;8.746;2023-09-19T10:38:32;91878.34;;;19.45;56.40
46778;BME280;32536;47.128;8.746;2023-09-19T10:41:00;91881.31;;;19.47;56.31
46778;BME280;32536;47.128;8.746;2023-09-19T10:43:33;91877.13;;;19.46;55.39
46778;BME280;32536;47.128;8.746;2023-09-19T10:46:08;91878.47;;;19.50;55.57
46778;BME280;32536;47.128;8.746;2023-09-19T10:48:38;91871.81;;;19.61;55.75
46778;BME280;32536;47.128;8.746;2023-09-19T10:51:20;91872.56;;;19.61;54.47
46778;BME280;32536;47.128;8.746;2023-09-19T10:53:56;91869.84;;;19.61;54.80
46778;BME280;32536;47.128;8.746;2023-09-19T10:56:36;91873.03;;;19.60;55.22
46778;BME280;32536;47.128;8.746;2023-09-19T11:01:43;91871.22;;;19.57;55.00
46778;BME280;32536;47.128;8.746;2023-09-19T11:04:31;91867.28;;;19.58;54.33
46778;BME280;32536;47.128;8.746;2023-09-19T11:07:10;91864.25;;;19.65;55.13
46778;BME280;32536;47.128;8.746;2023-09-19T11:09:51;91853.84;;;19.63;53.19
46778;BME280;32536;47.128;8.746;2023-09-19T11:14:58;91860.75;;;19.74;54.98
46778;BME280;32536;47.128;8.746;2023-09-19T11:17:35;91863.78;;;19.76;54.08
46778;BME280;32536;47.128;8.746;2023-09-19T11:30:40;91852.38;;;20.05;54.29
46778;BME280;32536;47.128;8.746;2023-09-19T11:33:30;91846.59;;;20.12;53.18
46778;BME280;32536;47.128;8.746;2023-09-19T11:36:09;91850.34;;;20.24;54.31
46778;BME280;32536;47.128;8.746;2023-09-19T11:49:19;91836.97;;;20.36;53.63
46778;BME280;32536;47.128;8.746;2023-09-19T11:51:58;91836.63;;;20.43;53.73
46778;BME280;32536;47.128;8.746;2023-09-19T11:54:27;91837.69;;;20.45;53.45
46778;BME280;32536;47.128;8.746;2023-09-19T11:56:58;91833.00;;;20.46;53.34
46778;BME280;32536;47.128;8.746;2023-09-19T11:59:27;91827.38;;;20.50;53.05
46778;BME280;32536;47.128;8.746;2023-09-19T12:02:06;91832.06;;;20.49;52.62
46778;BME280;32536;47.128;8.746;2023-09-19T12:07:07;91832.47;;;20.57;52.66
46778;BME280;32536;47.128;8.746;2023-09-19T12:12:25;91828.31;;;20.71;51.25
46778;BME280;32536;47.128;8.746;2023-09-19T12:14:53;91814.38;;;20.78;52.94
46778;BME280;32536;47.128;8.746;2023-09-19T12:17:23;91829.75;;;20.81;53.14
46778;BME280;32536;47.128;8.746;2023-09-19T12:19:51;91818.25;;;20.86;53.05
46778;BME280;32536;47.128;8.746;2023-09-19T12:22:19;91821.53;;;20.90;53.13
46778;BME280;32536;47.128;8.746;2023-09-19T12:24:49;91817.41;;;20.95;52.83
46778;BME280;32536;47.128;8.746;2023-09-19T12:27:16;91822.31;;;21.06;53.07
46778;BME280;32536;47.128;8.746;2023-09-19T12:29:47;91813.31;;;21.15;52.91
46778;BME280;32536;47.128;8.746;2023-09-19T12:32:36;91808.00;;;21.20;50.53
46778;BME280;32536;47.128;8.746;2023-09-19T12:35:07;91805.63;;;21.28;52.50
46778;BME280;32536;47.128;8.746;2023-09-19T12:37:45;91806.28;;;21.23;50.21
46778;BME280;32536;47.128;8.746;2023-09-19T12:40:21;91806.66;;;21.31;52.62
46778;BME280;32536;47.128;8.746;2023-09-19T12:42:49;91802.34;;;21.39;52.42
46778;BME280;32536;47.128;8.746;2023-09-19T12:45:16;91795.78;;;21.46;52.53
46778;BME280;32536;47.128;8.746;2023-09-19T12:48:19;91801.31;;;21.51;49.29
46778;BME280;32536;47.128;8.746;2023-09-19T12:51:02;91803.81;;;21.64;51.64
46778;BME280;32536;47.128;8.746;2023-09-19T12:53:37;91797.56;;;21.79;52.53
46778;BME280;32536;47.128;8.746;2023-09-19T12:56:10;91788.81;;;21.89;52.13
46778;BME280;32536;47.128;8.746;2023-09-19T12:58:55;91795.88;;;21.96;48.92
46778;BME280;32536;47.128;8.746;2023-09-19T13:01:25;91792.75;;;22.03;51.04
46778;BME280;32536;47.128;8.746;2023-09-19T13:06:49;91781.69;;;22.13;49.77
46778;BME280;32536;47.128;8.746;2023-09-19T13:09:18;91785.75;;;22.17;51.56
46778;BME280;32536;47.128;8.746;2023-09-19T13:11:46;91780.81;;;22.21;51.19
46778;BME280;32536;47.128;8.746;2023-09-19T13:14:24;91779.34;;;22.20;48.26
46778;BME280;32536;47.128;8.746;2023-09-19T13:17:06;91775.16;;;22.25;50.38
46778;BME280;32536;47.128;8.746;2023-09-19T13:19:50;91771.59;;;22.34;48.80
46778;BME280;32536;47.128;8.746;2023-09-19T13:22:40;91767.50;;;22.44;47.94
46778;BME280;32536;47.128;8.746;2023-09-19T13:25:18;91764.19;;;22.55;50.47
46778;BME280;32536;47.128;8.746;2023-09-19T13:27:49;91764.72;;;22.59;50.81
46778;BME280;32536;47.128;8.746;2023-09-19T13:30:18;91764.50;;;22.63;50.27
46778;BME280;32536;47.128;8.746;2023-09-19T13:32:46;91761.13;;;22.68;50.66
46778;BME280;32536;47.128;8.746;2023-09-19T13:35:14;91757.69;;;22.73;49.33
46778;BME280;32536;47.128;8.746;2023-09-19T13:37:42;91761.03;;;22.83;50.76
46778;BME280;32536;47.128;8.746;2023-09-19T13:40:11;91762.38;;;22.93;50.71
46778;BME280;32536;47.128;8.746;2023-09-19T13:42:39;91754.03;;;23.02;50.28
46778;BME280;32536;47.128;8.746;2023-09-19T13:45:07;91751.91;;;23.12;50.14
46778;BME280;32536;47.128;8.746;2023-09-19T13:47:38;91753.47;;;23.19;49.82
46778;BME280;32536;47.128;8.746;2023-09-19T13:50:06;91749.56;;;23.26;49.89
46778;BME280;32536;47.128;8.746;2023-09-19T13:52:33;91753.09;;;23.32;49.53
46778;BME280;32536;47.128;8.746;2023-09-19T13:55:01;91743.47;;;23.37;49.20
46778;BME280;32536;47.128;8.746;2023-09-19T13:57:27;91741.72;;;23.39;49.45
46778;BME280;32536;47.128;8.746;2023-09-19T13:59:55;91741.31;;;23.46;49.86
46778;BME280;32536;47.128;8.746;2023-09-19T14:02:22;91735.41;;;23.54;49.43
46778;BME280;32536;47.128;8.746;2023-09-19T14:04:49;91743.38;;;23.57;49.16
46778;BME280;32536;47.128;8.746;2023-09-19T14:07:17;91743.63;;;23.59;49.05
46778;BME280;32536;47.128;8.746;2023-09-19T14:09:46;91739.72;;;23.66;49.18
46778;BME280;32536;47.128;8.746;2023-09-19T14:12:14;91731.28;;;23.70;48.87